createdAt,value
2022-08-16T00:01:21.170Z,16.60
2022-08-16T00:03:50.604Z,16.60
2022-08-16T00:06:17.373Z,16.50
2022-08-16T00:08:46.204Z,16.50
2022-08-16T00:11:15.290Z,16.50
2022-08-16T00:13:43.215Z,16.40
2022-08-16T00:17:05.310Z,16.40
2022-08-16T00:19:06.901Z,16.40
2022-08-16T00:21:34.755Z,16.30
2022-08-16T00:24:04.727Z,16.20
2022-08-16T00:26:35.104Z,16.20
2022-08-16T00:29:16.301Z,16.20
2022-08-16T00:31:59.258Z,16.30
2022-08-16T00:34:44.029Z,16.30
2022-08-16T00:37:18.519Z,16.20
2022-08-16T00:39:48.036Z,16.10
2022-08-16T00:42:31.797Z,16.20
2022-08-16T00:45:09.742Z,16.20
2022-08-16T00:47:49.561Z,16.10
2022-08-16T00:50:20.410Z,16.10
2022-08-16T00:52:51.091Z,16.00
2022-08-16T00:55:22.306Z,16.00
2022-08-16T00:58:00.126Z,16.10
2022-08-16T01:00:30.463Z,16.10
2022-08-16T01:03:01.053Z,16.10
2022-08-16T01:05:29.194Z,16.10
2022-08-16T01:07:57.379Z,16.10
2022-08-16T01:10:32.075Z,16.10
2022-08-16T01:13:12.452Z,16.10
2022-08-16T01:15:46.931Z,16.00
2022-08-16T01:18:39.998Z,16.00
2022-08-16T01:21:33.371Z,16.10
2022-08-16T01:24:52.397Z,16.00
2022-08-16T01:27:05.643Z,15.90
2022-08-16T01:29:57.840Z,15.80
2022-08-16T01:32:31.545Z,15.80
2022-08-16T01:35:01.897Z,15.90
2022-08-16T01:37:35.542Z,16.00
2022-08-16T01:40:06.887Z,16.00
2022-08-16T01:42:34.409Z,16.00
2022-08-16T01:45:01.381Z,15.90
2022-08-16T01:47:29.481Z,15.80
2022-08-16T01:50:42.185Z,15.70
2022-08-16T01:52:46.828Z,15.70
2022-08-16T01:55:14.503Z,15.70
2022-08-16T01:57:53.222Z,15.80
2022-08-16T02:00:21.026Z,15.80
2022-08-16T02:02:56.596Z,15.90
2022-08-16T02:05:23.727Z,15.90
2022-08-16T02:07:51.899Z,15.90
2022-08-16T02:10:20.573Z,16.00
2022-08-16T02:12:51.432Z,16.00
2022-08-16T02:15:26.066Z,16.00
2022-08-16T02:17:55.174Z,16.00
2022-08-16T02:20:26.142Z,16.00
2022-08-16T02:22:55.162Z,16.00
2022-08-16T02:25:23.193Z,15.90
2022-08-16T02:27:51.470Z,16.00
2022-08-16T02:30:36.879Z,16.00
2022-08-16T02:33:11.360Z,15.90
2022-08-16T02:35:54.559Z,16.00
2022-08-16T02:38:27.031Z,16.00
2022-08-16T02:40:54.940Z,15.90
2022-08-16T02:43:26.640Z,15.90
2022-08-16T02:45:54.128Z,15.80
2022-08-16T02:48:29.283Z,15.80
2022-08-16T02:51:06.535Z,15.80
2022-08-16T02:53:43.339Z,15.70
2022-08-16T02:56:12.298Z,15.80
2022-08-16T02:58:43.975Z,15.70
2022-08-16T03:01:24.026Z,15.70
2022-08-16T03:04:41.500Z,15.70
2022-08-16T03:06:43.271Z,15.70
2022-08-16T03:09:13.893Z,15.70
2022-08-16T03:11:42.678Z,15.60
2022-08-16T03:14:09.489Z,15.60
2022-08-16T03:16:58.559Z,15.60
2022-08-16T03:19:48.594Z,15.50
2022-08-16T03:22:19.420Z,15.50
2022-08-16T03:24:55.206Z,15.60
2022-08-16T03:27:24.793Z,15.50
2022-08-16T03:29:54.901Z,15.50
2022-08-16T03:32:21.883Z,15.50
2022-08-16T03:34:49.801Z,15.60
2022-08-16T03:37:17.118Z,15.50
2022-08-16T03:39:44.131Z,15.50
2022-08-16T03:42:10.992Z,15.60
2022-08-16T03:44:47.536Z,15.40
2022-08-16T03:47:19.080Z,15.50
2022-08-16T03:49:52.396Z,15.50
2022-08-16T03:52:23.761Z,15.50
2022-08-16T03:54:57.690Z,15.50
2022-08-16T03:57:31.646Z,15.40
2022-08-16T04:00:36.106Z,15.30
2022-08-16T04:03:08.753Z,15.30
2022-08-16T04:05:46.803Z,15.30
2022-08-16T04:08:23.831Z,15.40
2022-08-16T04:10:52.422Z,15.40
2022-08-16T04:13:20.939Z,15.40
2022-08-16T04:16:06.596Z,15.50
2022-08-16T04:18:36.727Z,15.50
2022-08-16T04:21:04.325Z,15.50
2022-08-16T04:23:31.751Z,15.50
2022-08-16T04:26:02.159Z,15.50
2022-08-16T04:28:53.209Z,15.50
2022-08-16T04:31:16.504Z,15.50
2022-08-16T04:33:51.031Z,15.50
2022-08-16T04:36:20.018Z,15.50
2022-08-16T04:38:47.402Z,15.50
2022-08-16T04:41:17.373Z,15.60
2022-08-16T04:43:44.922Z,15.60
2022-08-16T04:46:19.741Z,15.60
2022-08-16T04:49:01.878Z,15.60
2022-08-16T04:51:28.554Z,15.70
2022-08-16T04:54:03.891Z,15.80
2022-08-16T04:56:30.764Z,15.80
2022-08-16T04:58:58.345Z,15.80
2022-08-16T05:01:58.560Z,15.80
2022-08-16T05:04:19.522Z,15.90
2022-08-16T05:06:46.824Z,15.90
2022-08-16T05:09:14.562Z,15.90
2022-08-16T05:11:43.520Z,16.00
2022-08-16T05:14:10.230Z,16.00
2022-08-16T05:16:37.305Z,16.00
2022-08-16T05:19:06.250Z,16.00
2022-08-16T05:21:38.912Z,15.90
2022-08-16T05:24:09.018Z,15.90
2022-08-16T05:26:37.539Z,15.90
2022-08-16T05:29:10.837Z,16.00
2022-08-16T05:31:47.948Z,16.00
2022-08-16T05:34:21.441Z,16.10
2022-08-16T05:36:51.017Z,16.10
2022-08-16T05:39:18.799Z,16.10
2022-08-16T05:41:47.944Z,16.20
2022-08-16T05:44:22.904Z,16.20
2022-08-16T05:46:56.395Z,16.30
2022-08-16T05:49:24.344Z,16.30
2022-08-16T05:51:54.747Z,16.40
2022-08-16T05:54:24.980Z,16.40
2022-08-16T05:56:52.650Z,16.50
2022-08-16T05:59:20.014Z,16.60
2022-08-16T06:01:50.574Z,16.60
2022-08-16T06:04:34.812Z,16.60
2022-08-16T06:07:07.154Z,16.70
2022-08-16T06:09:42.748Z,16.70
2022-08-16T06:12:26.803Z,16.70
2022-08-16T06:14:59.501Z,16.80
2022-08-16T06:17:41.759Z,16.80
2022-08-16T06:20:14.737Z,16.90
2022-08-16T06:22:44.662Z,17.00
2022-08-16T06:25:15.265Z,17.00
2022-08-16T06:27:42.316Z,17.10
2022-08-16T06:30:28.867Z,17.20
2022-08-16T06:32:55.810Z,17.20
2022-08-16T06:35:24.006Z,17.30
2022-08-16T06:37:51.524Z,17.40
2022-08-16T06:40:19.585Z,17.40
2022-08-16T06:42:47.978Z,17.50
2022-08-16T06:45:15.650Z,17.60
2022-08-16T06:47:52.959Z,17.60
2022-08-16T06:50:22.206Z,17.70
2022-08-16T06:53:00.596Z,17.70
2022-08-16T06:55:34.324Z,17.80
2022-08-16T06:58:08.485Z,17.80
2022-08-16T07:00:48.644Z,18.00
2022-08-16T07:03:27.572Z,18.00
2022-08-16T07:05:58.930Z,18.20
2022-08-16T07:08:27.445Z,18.40
2022-08-16T07:10:55.425Z,18.40
2022-08-16T07:13:57.890Z,18.50
2022-08-16T07:16:15.486Z,18.50
2022-08-16T07:18:59.317Z,18.60
2022-08-16T07:21:46.384Z,18.80
2022-08-16T07:24:30.195Z,18.90
2022-08-16T07:27:00.716Z,19.00
2022-08-16T07:29:31.346Z,19.10
2022-08-16T07:32:00.773Z,19.20
2022-08-16T07:34:35.137Z,19.30
2022-08-16T07:37:06.400Z,19.40
2022-08-16T07:39:33.947Z,19.50
2022-08-16T07:42:01.036Z,19.50
2022-08-16T07:44:28.795Z,19.70
2022-08-16T07:47:15.510Z,19.80
2022-08-16T07:49:52.925Z,19.80
2022-08-16T07:52:20.798Z,19.90
2022-08-16T07:54:49.163Z,19.90
2022-08-16T07:57:20.310Z,19.90
2022-08-16T07:59:51.459Z,20.00
2022-08-16T08:02:20.405Z,20.00
2022-08-16T08:04:48.183Z,20.10
2022-08-16T08:07:16.307Z,20.20
2022-08-16T08:09:44.124Z,20.30
2022-08-16T08:12:32.159Z,20.30
2022-08-16T08:15:01.018Z,20.40
2022-08-16T08:17:42.673Z,20.50
2022-08-16T08:20:26.320Z,20.50
2022-08-16T08:23:00.132Z,20.60
2022-08-16T08:25:54.167Z,20.60
2022-08-16T08:28:17.095Z,20.80
2022-08-16T08:30:51.031Z,21.00
2022-08-16T08:33:28.617Z,21.00
2022-08-16T08:36:00.903Z,20.90
2022-08-16T08:38:43.660Z,20.90
2022-08-16T08:41:13.364Z,21.00
2022-08-16T08:43:41.686Z,21.20
2022-08-16T08:46:17.796Z,21.30
2022-08-16T08:48:46.417Z,21.50
2022-08-16T08:51:35.765Z,21.70
2022-08-16T08:54:07.004Z,21.80
2022-08-16T08:56:37.827Z,21.80
2022-08-16T08:59:20.370Z,21.80
2022-08-16T09:01:57.295Z,21.70
2022-08-16T09:04:26.578Z,21.60
2022-08-16T09:06:54.287Z,21.50
2022-08-16T09:09:22.225Z,21.60
2022-08-16T09:11:53.762Z,21.60
2022-08-16T09:14:31.729Z,21.60
2022-08-16T09:17:03.135Z,21.80
2022-08-16T09:19:34.636Z,21.80
2022-08-16T09:22:01.626Z,21.80
2022-08-16T09:24:46.718Z,21.90
2022-08-16T09:27:15.209Z,21.90
2022-08-16T09:29:45.307Z,22.00
2022-08-16T09:32:13.373Z,22.00
2022-08-16T09:34:58.152Z,22.10
2022-08-16T09:37:29.511Z,22.30
2022-08-16T09:39:59.750Z,22.70
2022-08-16T09:42:29.305Z,23.00
2022-08-16T09:45:12.988Z,23.20
2022-08-16T09:47:56.312Z,23.10
2022-08-16T09:50:26.836Z,23.10
2022-08-16T09:53:06.949Z,23.10
2022-08-16T09:55:33.949Z,23.00
2022-08-16T09:58:13.878Z,23.00
2022-08-16T10:00:58.446Z,23.10
2022-08-16T10:03:31.069Z,23.10
2022-08-16T10:05:58.079Z,23.10
2022-08-16T10:08:27.072Z,23.10
2022-08-16T10:11:12.961Z,23.10
2022-08-16T10:13:41.574Z,23.10
2022-08-16T10:18:56.423Z,23.30
2022-08-16T10:21:24.379Z,23.40
2022-08-16T10:23:56.089Z,23.80
2022-08-16T10:27:20.521Z,24.10
2022-08-16T10:29:19.882Z,24.50
2022-08-16T10:31:53.886Z,24.80
2022-08-16T10:34:31.875Z,25.20
2022-08-16T10:37:00.618Z,25.50
2022-08-16T10:39:40.660Z,25.50
2022-08-16T10:42:10.186Z,25.30
2022-08-16T10:44:40.493Z,25.00
2022-08-16T10:47:09.989Z,24.80
2022-08-16T10:49:39.141Z,24.70
2022-08-16T10:52:17.992Z,24.60
2022-08-16T10:55:40.454Z,24.60
2022-08-16T10:57:33.278Z,24.70
2022-08-16T11:00:06.696Z,24.90
2022-08-16T11:02:59.738Z,24.80
2022-08-16T11:05:58.692Z,24.90
2022-08-16T11:08:16.366Z,25.00
2022-08-16T11:11:06.514Z,25.40
2022-08-16T11:16:27.907Z,25.80
2022-08-16T11:19:12.297Z,26.10
2022-08-16T11:24:41.227Z,25.90
2022-08-16T11:27:23.062Z,26.00
2022-08-16T11:29:55.748Z,26.30
2022-08-16T11:32:31.395Z,26.50
2022-08-16T11:35:14.268Z,26.60
2022-08-16T11:40:44.442Z,26.60
2022-08-16T11:43:16.507Z,26.40
2022-08-16T11:45:44.078Z,26.30
2022-08-16T11:48:22.088Z,26.60
2022-08-16T11:50:49.279Z,26.70
2022-08-16T11:53:17.161Z,26.80
2022-08-16T11:55:44.599Z,26.60
2022-08-16T11:58:12.308Z,26.30
2022-08-16T12:00:50.549Z,26.20
2022-08-16T12:03:19.218Z,26.30
2022-08-16T12:05:46.699Z,26.70
2022-08-16T12:08:19.426Z,27.00
2022-08-16T12:10:46.800Z,27.20
2022-08-16T12:13:14.319Z,27.40
2022-08-16T12:15:42.123Z,27.60
2022-08-16T12:18:09.637Z,27.60
2022-08-16T12:20:40.713Z,27.70
2022-08-16T12:23:07.620Z,27.50
2022-08-16T12:25:35.325Z,27.40
2022-08-16T12:28:03.907Z,27.50
2022-08-16T12:30:38.412Z,27.70
2022-08-16T12:33:09.661Z,27.80
2022-08-16T12:35:38.506Z,27.90
2022-08-16T12:38:08.715Z,27.90
2022-08-16T12:40:55.714Z,28.00
2022-08-16T12:43:24.215Z,28.00
2022-08-16T12:45:55.240Z,28.00
2022-08-16T12:48:46.570Z,28.00
2022-08-16T12:51:19.797Z,28.20
2022-08-16T12:53:52.977Z,28.10
2022-08-16T12:56:22.143Z,28.00
2022-08-16T12:58:53.636Z,28.10
2022-08-16T13:01:28.696Z,28.10
2022-08-16T13:04:21.034Z,28.10
2022-08-16T13:06:45.347Z,28.20
2022-08-16T13:09:24.056Z,28.10
2022-08-16T13:12:15.708Z,28.00
2022-08-16T13:14:44.093Z,28.00
2022-08-16T13:17:18.765Z,27.90
2022-08-16T13:22:35.111Z,28.00
2022-08-16T13:25:02.328Z,28.20
2022-08-16T13:28:03.244Z,28.40
2022-08-16T13:30:36.100Z,28.50
2022-08-16T13:33:12.256Z,28.70
2022-08-16T13:35:43.323Z,28.60
2022-08-16T13:38:12.590Z,28.70
2022-08-16T13:40:53.446Z,28.70
2022-08-16T13:43:23.839Z,28.70
2022-08-16T13:45:51.566Z,28.80
2022-08-16T13:48:24.694Z,28.80
2022-08-16T13:50:59.636Z,28.80
2022-08-16T13:53:31.107Z,28.80
2022-08-16T13:55:59.523Z,28.70
2022-08-16T13:58:34.831Z,28.70
2022-08-16T14:01:10.015Z,28.70
2022-08-16T14:03:38.617Z,28.80
2022-08-16T14:06:10.816Z,28.80
2022-08-16T14:08:42.385Z,28.70
2022-08-16T14:11:12.217Z,28.70
2022-08-16T14:13:40.634Z,28.80
2022-08-16T14:16:23.432Z,28.80
2022-08-16T14:18:53.276Z,28.80
2022-08-16T14:21:23.720Z,28.80
2022-08-16T14:23:52.142Z,28.90
2022-08-16T14:26:21.100Z,28.80
2022-08-16T14:28:50.347Z,28.90
2022-08-16T14:31:18.397Z,28.90
2022-08-16T14:33:45.703Z,29.00
2022-08-16T14:36:18.852Z,29.10
2022-08-16T14:38:56.785Z,29.10
2022-08-16T14:41:24.194Z,29.00
2022-08-16T14:43:50.887Z,29.00
2022-08-16T14:46:17.769Z,29.00
2022-08-16T14:48:44.515Z,29.00
2022-08-16T14:51:11.498Z,29.00
2022-08-16T14:53:38.376Z,29.00
2022-08-16T14:56:17.380Z,28.90
2022-08-16T14:58:59.215Z,29.00
2022-08-16T15:01:27.074Z,29.00
2022-08-16T15:04:13.736Z,29.00
2022-08-16T15:07:00.459Z,28.80
2022-08-16T15:09:27.480Z,28.80
2022-08-16T15:11:54.427Z,28.90
2022-08-16T15:14:21.252Z,28.90
2022-08-16T15:16:49.649Z,28.90
2022-08-16T15:19:17.225Z,29.00
2022-08-16T15:21:44.040Z,29.00
2022-08-16T15:24:16.718Z,28.90
2022-08-16T15:26:49.900Z,28.90
2022-08-16T15:29:17.028Z,28.80
2022-08-16T15:31:46.187Z,28.80
2022-08-16T15:34:21.863Z,28.80
2022-08-16T15:36:53.584Z,28.80
2022-08-16T15:39:35.387Z,28.80
2022-08-16T15:42:11.030Z,28.80
2022-08-16T15:44:51.991Z,28.80
2022-08-16T15:47:25.982Z,28.80
2022-08-16T15:49:55.790Z,28.80
2022-08-16T15:52:35.379Z,28.80
2022-08-16T15:55:23.788Z,28.80
2022-08-16T15:57:54.794Z,28.80
2022-08-16T16:00:22.270Z,28.80
2022-08-16T16:03:05.184Z,28.80
2022-08-16T16:05:37.255Z,28.70
2022-08-16T16:08:10.851Z,28.50
2022-08-16T16:10:39.544Z,28.40
2022-08-16T16:13:08.679Z,28.30
2022-08-16T16:15:57.134Z,28.40
2022-08-16T16:18:25.987Z,28.40
2022-08-16T16:21:12.363Z,28.40
2022-08-16T16:23:55.114Z,28.40
2022-08-16T16:26:26.727Z,28.30
2022-08-16T16:29:08.122Z,28.20
2022-08-16T16:31:41.930Z,28.20
2022-08-16T16:34:11.498Z,28.20
2022-08-16T16:36:39.857Z,28.10
2022-08-16T16:39:10.941Z,28.00
2022-08-16T16:41:40.479Z,28.00
2022-08-16T16:44:09.218Z,28.00
2022-08-16T16:46:43.423Z,28.00
2022-08-16T16:49:12.249Z,28.00
2022-08-16T16:51:44.864Z,27.90
2022-08-16T16:54:22.539Z,27.90
2022-08-16T16:56:55.908Z,27.90
2022-08-16T16:59:24.897Z,27.90
2022-08-16T17:01:59.531Z,27.90
2022-08-16T17:04:42.137Z,27.90
2022-08-16T17:07:11.145Z,27.80
2022-08-16T17:15:14.845Z,27.70
2022-08-16T17:17:59.347Z,27.60
2022-08-16T17:20:28.229Z,27.60
2022-08-16T17:22:56.366Z,27.50
2022-08-16T17:25:25.317Z,27.50
2022-08-16T17:27:52.118Z,27.50
2022-08-16T17:30:29.496Z,27.50
2022-08-16T17:33:11.337Z,27.40
2022-08-16T17:35:45.541Z,27.40
2022-08-16T17:38:38.911Z,27.40
2022-08-16T17:39:25.992Z,27.70
2022-08-16T17:39:27.696Z,27.70
2022-08-16T17:41:10.303Z,27.30
2022-08-16T17:43:44.456Z,27.30
2022-08-16T17:46:51.033Z,27.20
2022-08-16T17:48:59.917Z,27.20
2022-08-16T17:51:28.488Z,27.10
2022-08-16T17:53:55.639Z,27.10
2022-08-16T17:56:22.842Z,27.00
2022-08-16T17:58:49.625Z,27.00
2022-08-16T18:01:18.138Z,27.00
2022-08-16T18:04:08.300Z,26.90
2022-08-16T18:06:31.598Z,26.90
2022-08-16T18:09:02.667Z,26.90
2022-08-16T18:11:33.785Z,26.80
2022-08-16T18:14:01.001Z,26.80
2022-08-16T18:16:28.425Z,26.70
2022-08-16T18:18:55.174Z,26.70
2022-08-16T18:21:41.491Z,26.70
2022-08-16T18:24:09.296Z,26.70
2022-08-16T18:26:36.515Z,26.60
2022-08-16T18:29:05.519Z,26.60
2022-08-16T18:31:33.063Z,26.50
2022-08-16T18:34:01.383Z,26.40
2022-08-16T18:36:28.848Z,26.30
2022-08-16T18:38:55.660Z,26.30
2022-08-16T18:41:24.981Z,26.20
2022-08-16T18:44:24.260Z,26.20
2022-08-16T18:46:45.765Z,26.10
2022-08-16T18:49:18.606Z,26.00
2022-08-16T18:51:45.544Z,25.90
2022-08-16T18:54:18.205Z,25.90
2022-08-16T18:56:53.851Z,25.90
2022-08-16T18:59:26.509Z,25.90
2022-08-16T19:01:53.470Z,25.90
2022-08-16T19:04:47.791Z,25.80
2022-08-16T19:07:13.708Z,25.70
2022-08-16T19:09:40.424Z,25.70
2022-08-16T19:12:07.582Z,25.60
2022-08-16T19:14:34.481Z,25.40
2022-08-16T19:17:01.221Z,25.30
2022-08-16T19:19:27.949Z,25.30
2022-08-16T19:21:54.681Z,25.20
2022-08-16T19:24:21.441Z,25.20
2022-08-16T19:26:49.492Z,25.10
2022-08-16T19:29:16.245Z,25.00
2022-08-16T19:31:44.174Z,25.00
2022-08-16T19:34:13.163Z,25.00
2022-08-16T19:36:40.758Z,24.90
2022-08-16T19:39:14.016Z,24.90
2022-08-16T19:41:43.449Z,24.80
2022-08-16T19:44:11.392Z,24.70
2022-08-16T19:46:38.379Z,24.60
2022-08-16T19:49:05.783Z,24.40
2022-08-16T19:51:32.973Z,24.20
2022-08-16T19:53:59.814Z,24.10
2022-08-16T19:56:26.886Z,24.10
2022-08-16T20:01:43.091Z,24.00
2022-08-16T20:04:12.590Z,23.90
2022-08-16T20:06:40.477Z,23.90
2022-08-16T20:09:07.332Z,23.90
2022-08-16T20:11:35.017Z,23.80
2022-08-16T20:14:02.628Z,23.70
2022-08-16T20:16:29.561Z,23.50
2022-08-16T20:18:56.368Z,23.50
2022-08-16T20:21:23.231Z,23.40
2022-08-16T20:23:50.081Z,23.30
2022-08-16T20:26:18.697Z,23.20
2022-08-16T20:28:54.130Z,23.10
2022-08-16T20:31:25.619Z,23.10
2022-08-16T20:33:54.195Z,23.10
2022-08-16T20:36:21.047Z,23.10
2022-08-16T20:38:48.432Z,23.10
2022-08-16T20:41:16.414Z,23.10
2022-08-16T20:43:44.048Z,23.10
2022-08-16T20:46:12.441Z,23.10
2022-08-16T20:48:39.267Z,23.00
2022-08-16T20:51:06.827Z,22.90
2022-08-16T20:53:33.993Z,22.80
2022-08-16T20:56:00.949Z,22.70
2022-08-16T20:58:27.649Z,22.60
2022-08-16T21:00:54.464Z,22.50
2022-08-16T21:03:21.496Z,22.30
2022-08-16T21:05:48.354Z,22.10
2022-08-16T21:08:50.286Z,22.00
2022-08-16T21:11:05.236Z,22.00
2022-08-16T21:13:33.765Z,21.90
2022-08-16T21:16:02.192Z,21.80
2022-08-16T21:18:29.255Z,21.80
2022-08-16T21:20:56.306Z,21.80
2022-08-16T21:23:23.077Z,21.70
2022-08-16T21:25:59.043Z,21.70
2022-08-16T21:28:39.907Z,21.60
2022-08-16T21:31:13.711Z,21.50
2022-08-16T21:33:41.204Z,21.50
2022-08-16T21:36:08.202Z,21.40
2022-08-16T21:38:35.171Z,21.40
2022-08-16T21:41:03.572Z,21.20
2022-08-16T21:43:32.878Z,21.10
2022-08-16T21:46:01.641Z,21.00
2022-08-16T21:48:34.605Z,21.00
2022-08-16T21:51:08.288Z,20.90
2022-08-16T21:53:35.999Z,20.80
2022-08-16T21:56:05.558Z,20.70
2022-08-16T21:58:33.634Z,20.60
2022-08-16T22:01:01.187Z,20.50
2022-08-16T22:03:32.724Z,20.40
2022-08-16T22:06:13.001Z,20.40
2022-08-16T22:08:50.213Z,20.40
2022-08-16T22:11:22.463Z,20.30
2022-08-16T22:13:57.383Z,20.30
2022-08-16T22:16:31.470Z,20.20
2022-08-16T22:18:58.538Z,20.10
2022-08-16T22:21:25.696Z,20.00
2022-08-16T22:23:57.070Z,20.00
2022-08-16T22:26:31.679Z,19.90
2022-08-16T22:29:05.454Z,19.80
2022-08-16T22:31:33.212Z,19.90
2022-08-16T22:34:02.303Z,19.80
2022-08-16T22:36:30.816Z,19.80
2022-08-16T22:38:59.569Z,19.80
2022-08-16T22:41:31.760Z,19.70
2022-08-16T22:43:59.449Z,19.70
2022-08-16T22:46:26.246Z,19.60
2022-08-16T22:48:53.089Z,19.50
2022-08-16T22:51:22.102Z,19.40
2022-08-16T22:53:49.373Z,19.30
2022-08-16T22:56:17.435Z,19.30
2022-08-16T22:58:45.054Z,19.30
2022-08-16T23:01:13.765Z,19.30
2022-08-16T23:03:42.014Z,19.40
2022-08-16T23:06:10.256Z,19.50
2022-08-16T23:08:40.797Z,19.50
2022-08-16T23:11:22.844Z,19.50
2022-08-16T23:13:54.935Z,19.20
2022-08-16T23:16:24.914Z,19.10
2022-08-16T23:19:00.471Z,19.10
2022-08-16T23:21:27.803Z,19.00
2022-08-16T23:23:54.558Z,19.00
2022-08-16T23:26:36.326Z,18.90
2022-08-16T23:29:15.608Z,18.80
2022-08-16T23:31:53.273Z,18.90
2022-08-16T23:34:21.315Z,18.90
2022-08-16T23:36:48.031Z,18.80
2022-08-16T23:39:14.826Z,18.90
2022-08-16T23:41:41.570Z,18.90
2022-08-16T23:44:55.370Z,18.80
2022-08-16T23:46:55.887Z,18.70
2022-08-16T23:49:56.136Z,18.60
2022-08-16T23:52:10.286Z,18.50
2022-08-16T23:54:37.099Z,18.40
2022-08-16T23:57:04.014Z,18.30
2022-08-16T23:59:33.319Z,18.30
